sensor_id;sensor_type;location;lat;lon;timestamp;P1;durP1;ratioP1;P2;durP2;ratioP2
80293;SDS011;69594;43.516;1.498;2023-07-24T00:02:06;9.77;;;5.30;;
80293;SDS011;69594;43.516;1.498;2023-07-24T00:04:31;11.90;;;5.13;;
80293;SDS011;69594;43.516;1.498;2023-07-24T00:06:57;9.53;;;4.57;;
80293;SDS011;69594;43.516;1.498;2023-07-24T00:09:22;9.07;;;5.20;;
80293;SDS011;69594;43.516;1.498;2023-07-24T00:11:48;11.57;;;5.53;;
80293;SDS011;69594;43.516;1.498;2023-07-24T00:14:14;11.93;;;5.50;;
80293;SDS011;69594;43.516;1.498;2023-07-24T00:16:39;10.32;;;5.32;;
80293;SDS011;69594;43.516;1.498;2023-07-24T00:19:05;11.00;;;5.57;;
80293;SDS011;69594;43.516;1.498;2023-07-24T00:21:30;12.23;;;5.33;;
80293;SDS011;69594;43.516;1.498;2023-07-24T00:23:55;9.67;;;4.93;;
80293;SDS011;69594;43.516;1.498;2023-07-24T00:26:21;11.53;;;5.83;;
80293;SDS011;69594;43.516;1.498;2023-07-24T00:28:46;12.03;;;5.07;;
80293;SDS011;69594;43.516;1.498;2023-07-24T00:31:11;7.75;;;4.95;;
80293;SDS011;69594;43.516;1.498;2023-07-24T00:33:37;12.00;;;5.60;;
80293;SDS011;69594;43.516;1.498;2023-07-24T00:36:02;11.60;;;5.43;;
80293;SDS011;69594;43.516;1.498;2023-07-24T00:38:27;10.20;;;5.60;;
80293;SDS011;69594;43.516;1.498;2023-07-24T00:40:53;10.73;;;5.27;;
80293;SDS011;69594;43.516;1.498;2023-07-24T00:43:18;11.30;;;5.68;;
80293;SDS011;69594;43.516;1.498;2023-07-24T00:45:44;9.20;;;4.90;;
80293;SDS011;69594;43.516;1.498;2023-07-24T00:48:10;14.30;;;5.63;;
80293;SDS011;69594;43.516;1.498;2023-07-24T00:50:35;11.43;;;5.00;;
80293;SDS011;69594;43.516;1.498;2023-07-24T00:53:01;12.27;;;5.90;;
80293;SDS011;69594;43.516;1.498;2023-07-24T00:55:27;11.03;;;5.50;;
80293;SDS011;69594;43.516;1.498;2023-07-24T00:57:52;10.60;;;6.00;;
80293;SDS011;69594;43.516;1.498;2023-07-24T01:00:17;12.33;;;5.70;;
80293;SDS011;69594;43.516;1.498;2023-07-24T01:02:43;11.85;;;5.65;;
80293;SDS011;69594;43.516;1.498;2023-07-24T01:05:09;10.80;;;5.20;;
80293;SDS011;69594;43.516;1.498;2023-07-24T01:07:36;10.13;;;5.75;;
80293;SDS011;69594;43.516;1.498;2023-07-24T01:10:02;13.52;;;6.28;;
80293;SDS011;69594;43.516;1.498;2023-07-24T01:12:39;12.50;;;5.30;;
80293;SDS011;69594;43.516;1.498;2023-07-24T01:15:08;12.38;;;5.57;;
80293;SDS011;69594;43.516;1.498;2023-07-24T01:17:37;10.83;;;6.13;;
80293;SDS011;69594;43.516;1.498;2023-07-24T01:20:04;14.95;;;5.90;;
80293;SDS011;69594;43.516;1.498;2023-07-24T01:22:38;11.95;;;5.78;;
80293;SDS011;69594;43.516;1.498;2023-07-24T01:25:09;11.82;;;5.72;;
80293;SDS011;69594;43.516;1.498;2023-07-24T01:27:40;10.45;;;5.57;;
80293;SDS011;69594;43.516;1.498;2023-07-24T01:30:05;12.80;;;5.63;;
80293;SDS011;69594;43.516;1.498;2023-07-24T01:32:30;10.77;;;6.35;;
80293;SDS011;69594;43.516;1.498;2023-07-24T01:34:56;10.57;;;6.17;;
80293;SDS011;69594;43.516;1.498;2023-07-24T01:37:21;9.37;;;4.83;;
80293;SDS011;69594;43.516;1.498;2023-07-24T01:39:47;8.80;;;5.15;;
80293;SDS011;69594;43.516;1.498;2023-07-24T01:42:13;8.37;;;5.00;;
80293;SDS011;69594;43.516;1.498;2023-07-24T01:44:39;9.50;;;4.87;;
80293;SDS011;69594;43.516;1.498;2023-07-24T01:47:04;9.13;;;4.70;;
80293;SDS011;69594;43.516;1.498;2023-07-24T01:49:29;8.20;;;4.88;;
80293;SDS011;69594;43.516;1.498;2023-07-24T01:51:55;7.17;;;4.80;;
80293;SDS011;69594;43.516;1.498;2023-07-24T01:54:22;10.25;;;4.95;;
80293;SDS011;69594;43.516;1.498;2023-07-24T01:56:48;7.67;;;5.13;;
80293;SDS011;69594;43.516;1.498;2023-07-24T01:59:13;7.50;;;5.03;;
80293;SDS011;69594;43.516;1.498;2023-07-24T02:01:38;8.85;;;5.40;;
80293;SDS011;69594;43.516;1.498;2023-07-24T02:04:04;8.10;;;5.43;;
80293;SDS011;69594;43.516;1.498;2023-07-24T02:06:29;7.57;;;5.23;;
80293;SDS011;69594;43.516;1.498;2023-07-24T02:08:54;8.53;;;5.67;;
80293;SDS011;69594;43.516;1.498;2023-07-24T02:11:20;10.07;;;6.13;;
80293;SDS011;69594;43.516;1.498;2023-07-24T02:13:45;9.10;;;5.47;;
80293;SDS011;69594;43.516;1.498;2023-07-24T02:16:11;10.05;;;5.80;;
80293;SDS011;69594;43.516;1.498;2023-07-24T02:18:38;9.93;;;6.75;;
80293;SDS011;69594;43.516;1.498;2023-07-24T02:21:03;10.00;;;6.27;;
80293;SDS011;69594;43.516;1.498;2023-07-24T02:23:28;9.45;;;6.15;;
80293;SDS011;69594;43.516;1.498;2023-07-24T02:25:54;9.00;;;6.50;;
80293;SDS011;69594;43.516;1.498;2023-07-24T02:28:19;10.23;;;6.17;;
80293;SDS011;69594;43.516;1.498;2023-07-24T02:30:46;10.17;;;6.97;;
80293;SDS011;69594;43.516;1.498;2023-07-24T02:33:11;9.40;;;6.60;;
80293;SDS011;69594;43.516;1.498;2023-07-24T02:35:40;8.47;;;5.70;;
80293;SDS011;69594;43.516;1.498;2023-07-24T02:38:06;9.85;;;6.28;;
80293;SDS011;69594;43.516;1.498;2023-07-24T02:40:31;9.30;;;6.53;;
80293;SDS011;69594;43.516;1.498;2023-07-24T02:42:57;9.87;;;6.67;;
80293;SDS011;69594;43.516;1.498;2023-07-24T02:45:22;9.55;;;6.22;;
80293;SDS011;69594;43.516;1.498;2023-07-24T02:47:47;9.60;;;6.33;;
80293;SDS011;69594;43.516;1.498;2023-07-24T02:50:13;11.77;;;6.80;;
80293;SDS011;69594;43.516;1.498;2023-07-24T02:52:38;9.53;;;6.87;;
80293;SDS011;69594;43.516;1.498;2023-07-24T02:55:04;9.93;;;6.33;;
80293;SDS011;69594;43.516;1.498;2023-07-24T02:57:29;12.23;;;6.70;;
80293;SDS011;69594;43.516;1.498;2023-07-24T02:59:54;10.40;;;6.40;;
80293;SDS011;69594;43.516;1.498;2023-07-24T03:02:20;11.53;;;6.27;;
80293;SDS011;69594;43.516;1.498;2023-07-24T03:04:45;8.63;;;6.00;;
80293;SDS011;69594;43.516;1.498;2023-07-24T03:07:10;9.57;;;6.43;;
80293;SDS011;69594;43.516;1.498;2023-07-24T03:09:36;8.73;;;6.43;;
80293;SDS011;69594;43.516;1.498;2023-07-24T03:12:01;8.27;;;6.30;;
80293;SDS011;69594;43.516;1.498;2023-07-24T03:14:26;8.93;;;6.23;;
80293;SDS011;69594;43.516;1.498;2023-07-24T03:16:52;8.32;;;6.03;;
80293;SDS011;69594;43.516;1.498;2023-07-24T03:19:17;9.07;;;6.80;;
80293;SDS011;69594;43.516;1.498;2023-07-24T03:21:45;12.43;;;7.20;;
80293;SDS011;69594;43.516;1.498;2023-07-24T03:24:10;9.00;;;6.72;;
80293;SDS011;69594;43.516;1.498;2023-07-24T03:26:35;11.23;;;7.30;;
80293;SDS011;69594;43.516;1.498;2023-07-24T03:29:01;10.13;;;6.27;;
80293;SDS011;69594;43.516;1.498;2023-07-24T03:31:26;11.67;;;6.90;;
80293;SDS011;69594;43.516;1.498;2023-07-24T03:33:51;9.27;;;6.00;;
80293;SDS011;69594;43.516;1.498;2023-07-24T03:36:17;11.27;;;6.63;;
80293;SDS011;69594;43.516;1.498;2023-07-24T03:38:42;9.07;;;6.03;;
80293;SDS011;69594;43.516;1.498;2023-07-24T03:41:07;8.50;;;5.63;;
80293;SDS011;69594;43.516;1.498;2023-07-24T03:43:33;12.25;;;6.20;;
80293;SDS011;69594;43.516;1.498;2023-07-24T03:45:58;11.23;;;6.60;;
80293;SDS011;69594;43.516;1.498;2023-07-24T03:48:24;10.10;;;6.83;;
80293;SDS011;69594;43.516;1.498;2023-07-24T03:50:50;10.83;;;5.90;;
80293;SDS011;69594;43.516;1.498;2023-07-24T03:53:15;9.35;;;5.95;;
80293;SDS011;69594;43.516;1.498;2023-07-24T03:55:41;11.13;;;5.80;;
80293;SDS011;69594;43.516;1.498;2023-07-24T03:58:06;9.17;;;5.83;;
80293;SDS011;69594;43.516;1.498;2023-07-24T04:00:31;8.40;;;4.95;;
80293;SDS011;69594;43.516;1.498;2023-07-24T04:02:57;9.10;;;6.03;;
80293;SDS011;69594;43.516;1.498;2023-07-24T04:05:22;8.60;;;4.80;;
80293;SDS011;69594;43.516;1.498;2023-07-24T04:07:48;7.67;;;4.60;;
80293;SDS011;69594;43.516;1.498;2023-07-24T04:10:13;8.02;;;4.80;;
80293;SDS011;69594;43.516;1.498;2023-07-24T04:12:39;8.03;;;4.57;;
80293;SDS011;69594;43.516;1.498;2023-07-24T04:15:04;8.60;;;5.03;;
80293;SDS011;69594;43.516;1.498;2023-07-24T04:17:30;8.47;;;4.97;;
80293;SDS011;69594;43.516;1.498;2023-07-24T04:19:55;7.37;;;4.53;;
80293;SDS011;69594;43.516;1.498;2023-07-24T04:22:20;9.85;;;4.43;;
80293;SDS011;69594;43.516;1.498;2023-07-24T04:24:46;8.43;;;4.40;;
80293;SDS011;69594;43.516;1.498;2023-07-24T04:27:11;7.40;;;4.70;;
80293;SDS011;69594;43.516;1.498;2023-07-24T04:29:36;8.93;;;5.13;;
80293;SDS011;69594;43.516;1.498;2023-07-24T04:32:02;8.07;;;4.90;;
80293;SDS011;69594;43.516;1.498;2023-07-24T04:34:27;7.10;;;4.60;;
80293;SDS011;69594;43.516;1.498;2023-07-24T04:36:53;8.33;;;5.07;;
80293;SDS011;69594;43.516;1.498;2023-07-24T04:39:18;8.97;;;5.33;;
80293;SDS011;69594;43.516;1.498;2023-07-24T04:41:44;8.93;;;4.70;;
80293;SDS011;69594;43.516;1.498;2023-07-24T04:44:09;7.57;;;5.20;;
80293;SDS011;69594;43.516;1.498;2023-07-24T04:46:34;8.87;;;4.73;;
80293;SDS011;69594;43.516;1.498;2023-07-24T04:49:00;9.60;;;5.20;;
80293;SDS011;69594;43.516;1.498;2023-07-24T04:51:25;8.00;;;4.53;;
80293;SDS011;69594;43.516;1.498;2023-07-24T04:53:50;8.17;;;4.87;;
80293;SDS011;69594;43.516;1.498;2023-07-24T04:56:16;7.50;;;4.23;;
80293;SDS011;69594;43.516;1.498;2023-07-24T04:58:41;10.03;;;4.60;;
80293;SDS011;69594;43.516;1.498;2023-07-24T05:01:06;8.60;;;4.63;;
80293;SDS011;69594;43.516;1.498;2023-07-24T05:03:32;8.25;;;4.65;;
80293;SDS011;69594;43.516;1.498;2023-07-24T05:05:57;8.03;;;4.40;;
80293;SDS011;69594;43.516;1.498;2023-07-24T05:08:23;8.63;;;4.77;;
80293;SDS011;69594;43.516;1.498;2023-07-24T05:10:57;8.73;;;4.80;;
80293;SDS011;69594;43.516;1.498;2023-07-24T05:13:23;6.78;;;4.43;;
80293;SDS011;69594;43.516;1.498;2023-07-24T05:15:49;8.20;;;5.53;;
80293;SDS011;69594;43.516;1.498;2023-07-24T05:18:14;8.20;;;4.07;;
80293;SDS011;69594;43.516;1.498;2023-07-24T05:20:49;6.30;;;4.30;;
80293;SDS011;69594;43.516;1.498;2023-07-24T05:23:16;6.50;;;4.63;;
80293;SDS011;69594;43.516;1.498;2023-07-24T05:25:41;8.97;;;4.27;;
80293;SDS011;69594;43.516;1.498;2023-07-24T05:28:07;11.07;;;4.18;;
80293;SDS011;69594;43.516;1.498;2023-07-24T05:30:33;7.23;;;4.80;;
80293;SDS011;69594;43.516;1.498;2023-07-24T05:32:58;6.70;;;3.67;;
80293;SDS011;69594;43.516;1.498;2023-07-24T05:35:23;6.67;;;3.87;;
80293;SDS011;69594;43.516;1.498;2023-07-24T05:37:49;7.67;;;4.13;;
80293;SDS011;69594;43.516;1.498;2023-07-24T05:40:14;8.10;;;4.53;;
80293;SDS011;69594;43.516;1.498;2023-07-24T05:42:39;6.13;;;4.07;;
80293;SDS011;69594;43.516;1.498;2023-07-24T05:45:08;7.37;;;4.13;;
80293;SDS011;69594;43.516;1.498;2023-07-24T05:47:33;7.57;;;4.60;;
80293;SDS011;69594;43.516;1.498;2023-07-24T05:49:59;7.90;;;4.40;;
80293;SDS011;69594;43.516;1.498;2023-07-24T05:52:24;6.67;;;3.87;;
80293;SDS011;69594;43.516;1.498;2023-07-24T05:54:50;6.27;;;3.93;;
80293;SDS011;69594;43.516;1.498;2023-07-24T05:57:15;7.15;;;4.40;;
80293;SDS011;69594;43.516;1.498;2023-07-24T05:59:40;16.17;;;11.50;;
80293;SDS011;69594;43.516;1.498;2023-07-24T06:02:06;7.10;;;4.63;;
80293;SDS011;69594;43.516;1.498;2023-07-24T06:04:32;8.80;;;4.50;;
80293;SDS011;69594;43.516;1.498;2023-07-24T06:06:58;7.20;;;4.47;;
80293;SDS011;69594;43.516;1.498;2023-07-24T06:09:23;10.53;;;4.70;;
80293;SDS011;69594;43.516;1.498;2023-07-24T06:11:48;7.23;;;4.57;;
80293;SDS011;69594;43.516;1.498;2023-07-24T06:14:14;7.22;;;4.60;;
80293;SDS011;69594;43.516;1.498;2023-07-24T06:16:39;8.07;;;4.73;;
80293;SDS011;69594;43.516;1.498;2023-07-24T06:19:05;9.53;;;4.53;;
80293;SDS011;69594;43.516;1.498;2023-07-24T06:21:30;6.60;;;4.10;;
80293;SDS011;69594;43.516;1.498;2023-07-24T06:23:56;7.07;;;4.90;;
80293;SDS011;69594;43.516;1.498;2023-07-24T06:26:21;7.40;;;4.20;;
80293;SDS011;69594;43.516;1.498;2023-07-24T06:28:47;7.33;;;4.23;;
80293;SDS011;69594;43.516;1.498;2023-07-24T06:31:12;7.43;;;4.60;;
80293;SDS011;69594;43.516;1.498;2023-07-24T06:33:37;7.90;;;4.53;;
80293;SDS011;69594;43.516;1.498;2023-07-24T06:36:03;7.20;;;4.53;;
80293;SDS011;69594;43.516;1.498;2023-07-24T06:38:28;6.43;;;3.93;;
80293;SDS011;69594;43.516;1.498;2023-07-24T06:40:54;6.07;;;4.30;;
80293;SDS011;69594;43.516;1.498;2023-07-24T06:43:19;9.23;;;4.60;;
80293;SDS011;69594;43.516;1.498;2023-07-24T06:45:44;7.13;;;4.28;;
80293;SDS011;69594;43.516;1.498;2023-07-24T06:48:10;6.90;;;4.40;;
80293;SDS011;69594;43.516;1.498;2023-07-24T06:50:35;7.13;;;4.47;;
80293;SDS011;69594;43.516;1.498;2023-07-24T06:53:00;5.90;;;3.70;;
80293;SDS011;69594;43.516;1.498;2023-07-24T06:55:26;10.37;;;4.70;;
80293;SDS011;69594;43.516;1.498;2023-07-24T06:57:51;6.87;;;4.20;;
80293;SDS011;69594;43.516;1.498;2023-07-24T07:00:16;9.13;;;4.23;;
80293;SDS011;69594;43.516;1.498;2023-07-24T07:02:42;9.23;;;4.97;;
80293;SDS011;69594;43.516;1.498;2023-07-24T07:05:07;5.73;;;3.87;;
80293;SDS011;69594;43.516;1.498;2023-07-24T07:07:33;8.30;;;4.60;;
80293;SDS011;69594;43.516;1.498;2023-07-24T07:09:58;6.47;;;4.10;;
80293;SDS011;69594;43.516;1.498;2023-07-24T07:12:23;9.20;;;4.90;;
80293;SDS011;69594;43.516;1.498;2023-07-24T07:14:49;6.80;;;4.20;;
80293;SDS011;69594;43.516;1.498;2023-07-24T07:17:14;6.90;;;4.13;;
80293;SDS011;69594;43.516;1.498;2023-07-24T07:19:39;7.20;;;3.80;;
80293;SDS011;69594;43.516;1.498;2023-07-24T07:22:05;6.57;;;4.07;;
80293;SDS011;69594;43.516;1.498;2023-07-24T07:24:30;7.77;;;3.97;;
80293;SDS011;69594;43.516;1.498;2023-07-24T07:26:56;6.37;;;4.07;;
80293;SDS011;69594;43.516;1.498;2023-07-24T07:29:21;7.00;;;3.63;;
80293;SDS011;69594;43.516;1.498;2023-07-24T07:31:46;6.73;;;4.30;;
80293;SDS011;69594;43.516;1.498;2023-07-24T07:34:12;6.87;;;4.17;;
80293;SDS011;69594;43.516;1.498;2023-07-24T07:36:37;7.97;;;4.30;;
80293;SDS011;69594;43.516;1.498;2023-07-24T07:39:02;9.20;;;4.70;;
80293;SDS011;69594;43.516;1.498;2023-07-24T07:41:28;6.20;;;4.20;;
80293;SDS011;69594;43.516;1.498;2023-07-24T07:43:54;11.57;;;4.20;;
80293;SDS011;69594;43.516;1.498;2023-07-24T07:46:19;8.13;;;4.17;;
80293;SDS011;69594;43.516;1.498;2023-07-24T07:48:44;6.27;;;4.20;;
80293;SDS011;69594;43.516;1.498;2023-07-24T07:51:11;5.65;;;3.70;;
80293;SDS011;69594;43.516;1.498;2023-07-24T07:53:36;8.90;;;4.33;;
80293;SDS011;69594;43.516;1.498;2023-07-24T07:56:03;7.82;;;4.90;;
80293;SDS011;69594;43.516;1.498;2023-07-24T07:58:29;7.97;;;4.82;;
80293;SDS011;69594;43.516;1.498;2023-07-24T08:00:54;6.83;;;4.97;;
80293;SDS011;69594;43.516;1.498;2023-07-24T08:03:19;6.20;;;3.80;;
80293;SDS011;69594;43.516;1.498;2023-07-24T08:05:45;7.13;;;3.83;;
80293;SDS011;69594;43.516;1.498;2023-07-24T08:08:11;6.93;;;3.13;;
80293;SDS011;69594;43.516;1.498;2023-07-24T08:10:37;14.47;;;9.60;;
80293;SDS011;69594;43.516;1.498;2023-07-24T08:13:03;21.55;;;13.38;;
80293;SDS011;69594;43.516;1.498;2023-07-24T08:15:28;21.80;;;15.33;;
80293;SDS011;69594;43.516;1.498;2023-07-24T08:17:53;5.97;;;4.10;;
80293;SDS011;69594;43.516;1.498;2023-07-24T08:20:19;35.50;;;26.25;;
80293;SDS011;69594;43.516;1.498;2023-07-24T08:22:44;35.53;;;24.97;;
80293;SDS011;69594;43.516;1.498;2023-07-24T08:25:09;13.80;;;8.60;;
80293;SDS011;69594;43.516;1.498;2023-07-24T08:27:35;20.07;;;13.97;;
80293;SDS011;69594;43.516;1.498;2023-07-24T08:30:00;23.40;;;16.07;;
80293;SDS011;69594;43.516;1.498;2023-07-24T08:32:25;23.33;;;16.00;;
80293;SDS011;69594;43.516;1.498;2023-07-24T08:34:51;7.30;;;4.90;;
80293;SDS011;69594;43.516;1.498;2023-07-24T08:37:16;6.43;;;3.65;;
80293;SDS011;69594;43.516;1.498;2023-07-24T08:39:41;8.30;;;4.33;;
80293;SDS011;69594;43.516;1.498;2023-07-24T08:42:07;5.33;;;3.40;;
80293;SDS011;69594;43.516;1.498;2023-07-24T08:44:33;5.65;;;3.35;;
80293;SDS011;69594;43.516;1.498;2023-07-24T08:46:59;6.00;;;4.10;;
80293;SDS011;69594;43.516;1.498;2023-07-24T08:49:25;5.05;;;3.42;;
80293;SDS011;69594;43.516;1.498;2023-07-24T08:51:50;6.65;;;3.75;;
80293;SDS011;69594;43.516;1.498;2023-07-24T08:54:16;5.37;;;3.73;;
80293;SDS011;69594;43.516;1.498;2023-07-24T08:56:41;4.77;;;3.17;;
80293;SDS011;69594;43.516;1.498;2023-07-24T08:59:12;8.55;;;3.63;;
80293;SDS011;69594;43.516;1.498;2023-07-24T09:01:37;5.43;;;3.63;;
80293;SDS011;69594;43.516;1.498;2023-07-24T09:04:02;6.27;;;3.87;;
80293;SDS011;69594;43.516;1.498;2023-07-24T09:06:28;5.45;;;3.38;;
80293;SDS011;69594;43.516;1.498;2023-07-24T09:08:54;7.20;;;3.97;;
80293;SDS011;69594;43.516;1.498;2023-07-24T09:11:19;5.47;;;3.53;;
80293;SDS011;69594;43.516;1.498;2023-07-24T09:13:44;5.47;;;3.38;;
80293;SDS011;69594;43.516;1.498;2023-07-24T09:16:20;8.23;;;3.57;;
80293;SDS011;69594;43.516;1.498;2023-07-24T09:18:46;6.53;;;3.30;;
80293;SDS011;69594;43.516;1.498;2023-07-24T09:21:11;7.27;;;3.67;;
80293;SDS011;69594;43.516;1.498;2023-07-24T09:23:40;5.67;;;3.17;;
80293;SDS011;69594;43.516;1.498;2023-07-24T09:26:06;5.03;;;3.42;;
80293;SDS011;69594;43.516;1.498;2023-07-24T09:28:32;8.65;;;3.47;;
80293;SDS011;69594;43.516;1.498;2023-07-24T09:30:58;4.13;;;2.78;;
80293;SDS011;69594;43.516;1.498;2023-07-24T09:33:39;6.40;;;3.20;;
80293;SDS011;69594;43.516;1.498;2023-07-24T09:36:05;5.47;;;2.80;;
80293;SDS011;69594;43.516;1.498;2023-07-24T09:38:32;4.80;;;2.80;;
80293;SDS011;69594;43.516;1.498;2023-07-24T09:40:57;4.83;;;3.10;;
80293;SDS011;69594;43.516;1.498;2023-07-24T09:43:24;3.63;;;2.47;;
80293;SDS011;69594;43.516;1.498;2023-07-24T09:45:50;8.57;;;3.10;;
80293;SDS011;69594;43.516;1.498;2023-07-24T09:48:15;4.07;;;2.77;;
80293;SDS011;69594;43.516;1.498;2023-07-24T09:50:41;5.32;;;2.33;;
80293;SDS011;69594;43.516;1.498;2023-07-24T09:53:12;4.18;;;2.70;;
80293;SDS011;69594;43.516;1.498;2023-07-24T09:55:43;4.05;;;2.67;;
80293;SDS011;69594;43.516;1.498;2023-07-24T09:58:10;4.30;;;2.88;;
80293;SDS011;69594;43.516;1.498;2023-07-24T10:00:37;3.63;;;2.20;;
80293;SDS011;69594;43.516;1.498;2023-07-24T10:03:02;5.22;;;2.60;;
80293;SDS011;69594;43.516;1.498;2023-07-24T10:05:28;6.20;;;2.83;;
80293;SDS011;69594;43.516;1.498;2023-07-24T10:07:54;5.05;;;2.95;;
80293;SDS011;69594;43.516;1.498;2023-07-24T10:10:20;5.40;;;2.27;;
80293;SDS011;69594;43.516;1.498;2023-07-24T10:12:46;4.53;;;2.55;;
80293;SDS011;69594;43.516;1.498;2023-07-24T10:15:11;2.80;;;2.00;;
80293;SDS011;69594;43.516;1.498;2023-07-24T10:17:37;3.75;;;1.85;;
80293;SDS011;69594;43.516;1.498;2023-07-24T10:20:03;3.60;;;2.40;;
80293;SDS011;69594;43.516;1.498;2023-07-24T10:22:29;3.38;;;2.10;;
80293;SDS011;69594;43.516;1.498;2023-07-24T10:24:55;3.67;;;2.10;;
80293;SDS011;69594;43.516;1.498;2023-07-24T10:27:23;3.72;;;2.20;;
80293;SDS011;69594;43.516;1.498;2023-07-24T10:30:01;4.68;;;2.55;;
80293;SDS011;69594;43.516;1.498;2023-07-24T10:32:32;4.93;;;2.60;;
80293;SDS011;69594;43.516;1.498;2023-07-24T10:34:58;4.70;;;2.50;;
80293;SDS011;69594;43.516;1.498;2023-07-24T10:37:31;3.25;;;2.28;;
80293;SDS011;69594;43.516;1.498;2023-07-24T10:39:56;5.90;;;2.30;;
80293;SDS011;69594;43.516;1.498;2023-07-24T10:42:22;2.67;;;1.97;;
80293;SDS011;69594;43.516;1.498;2023-07-24T10:44:48;3.67;;;1.92;;
80293;SDS011;69594;43.516;1.498;2023-07-24T10:47:13;5.83;;;2.60;;
80293;SDS011;69594;43.516;1.498;2023-07-24T10:49:42;4.22;;;2.78;;
80293;SDS011;69594;43.516;1.498;2023-07-24T10:52:07;6.57;;;3.20;;
80293;SDS011;69594;43.516;1.498;2023-07-24T10:54:33;5.15;;;2.80;;
80293;SDS011;69594;43.516;1.498;2023-07-24T10:56:59;4.97;;;2.80;;
80293;SDS011;69594;43.516;1.498;2023-07-24T10:59:35;5.57;;;2.50;;
80293;SDS011;69594;43.516;1.498;2023-07-24T11:02:00;4.35;;;2.47;;
80293;SDS011;69594;43.516;1.498;2023-07-24T11:04:29;4.50;;;1.90;;
80293;SDS011;69594;43.516;1.498;2023-07-24T11:06:54;4.95;;;2.20;;
80293;SDS011;69594;43.516;1.498;2023-07-24T11:09:22;4.73;;;2.63;;
80293;SDS011;69594;43.516;1.498;2023-07-24T11:11:47;3.95;;;2.20;;
80293;SDS011;69594;43.516;1.498;2023-07-24T11:14:16;4.87;;;2.57;;
80293;SDS011;69594;43.516;1.498;2023-07-24T11:16:48;4.10;;;2.10;;
80293;SDS011;69594;43.516;1.498;2023-07-24T11:19:21;4.17;;;2.13;;
80293;SDS011;69594;43.516;1.498;2023-07-24T11:21:47;5.03;;;2.20;;
80293;SDS011;69594;43.516;1.498;2023-07-24T11:24:12;3.77;;;2.37;;
80293;SDS011;69594;43.516;1.498;2023-07-24T11:26:37;2.92;;;2.08;;
80293;SDS011;69594;43.516;1.498;2023-07-24T11:29:10;4.17;;;2.23;;
80293;SDS011;69594;43.516;1.498;2023-07-24T11:31:38;4.10;;;2.23;;
80293;SDS011;69594;43.516;1.498;2023-07-24T11:34:04;5.78;;;2.00;;
80293;SDS011;69594;43.516;1.498;2023-07-24T11:36:30;3.17;;;1.98;;
80293;SDS011;69594;43.516;1.498;2023-07-24T11:38:55;3.63;;;1.93;;
80293;SDS011;69594;43.516;1.498;2023-07-24T11:41:21;2.70;;;2.00;;
80293;SDS011;69594;43.516;1.498;2023-07-24T11:43:46;3.28;;;1.58;;
80293;SDS011;69594;43.516;1.498;2023-07-24T11:46:21;3.00;;;1.73;;
80293;SDS011;69594;43.516;1.498;2023-07-24T11:48:47;5.07;;;1.90;;
80293;SDS011;69594;43.516;1.498;2023-07-24T11:51:13;2.95;;;1.70;;
80293;SDS011;69594;43.516;1.498;2023-07-24T11:53:40;5.53;;;2.13;;
80293;SDS011;69594;43.516;1.498;2023-07-24T11:56:13;3.40;;;1.93;;
80293;SDS011;69594;43.516;1.498;2023-07-24T11:58:40;7.10;;;2.15;;
80293;SDS011;69594;43.516;1.498;2023-07-24T12:01:05;6.38;;;2.72;;
80293;SDS011;69594;43.516;1.498;2023-07-24T12:03:30;2.87;;;2.00;;
80293;SDS011;69594;43.516;1.498;2023-07-24T12:05:56;5.20;;;2.30;;
80293;SDS011;69594;43.516;1.498;2023-07-24T12:08:30;3.23;;;2.10;;
80293;SDS011;69594;43.516;1.498;2023-07-24T12:10:55;4.35;;;1.95;;
80293;SDS011;69594;43.516;1.498;2023-07-24T12:13:21;3.03;;;1.83;;
80293;SDS011;69594;43.516;1.498;2023-07-24T12:15:46;2.93;;;1.87;;
80293;SDS011;69594;43.516;1.498;2023-07-24T12:18:11;3.70;;;2.30;;
80293;SDS011;69594;43.516;1.498;2023-07-24T12:20:37;6.03;;;2.10;;
80293;SDS011;69594;43.516;1.498;2023-07-24T12:23:02;4.17;;;2.10;;
80293;SDS011;69594;43.516;1.498;2023-07-24T12:25:28;4.00;;;2.30;;
80293;SDS011;69594;43.516;1.498;2023-07-24T12:27:53;4.57;;;2.03;;
80293;SDS011;69594;43.516;1.498;2023-07-24T12:30:21;4.77;;;2.17;;
80293;SDS011;69594;43.516;1.498;2023-07-24T12:32:47;6.78;;;2.40;;
80293;SDS011;69594;43.516;1.498;2023-07-24T12:35:12;5.33;;;2.60;;
80293;SDS011;69594;43.516;1.498;2023-07-24T12:37:38;3.83;;;2.10;;
80293;SDS011;69594;43.516;1.498;2023-07-24T12:40:07;5.40;;;2.00;;
80293;SDS011;69594;43.516;1.498;2023-07-24T12:42:32;4.87;;;2.30;;
80293;SDS011;69594;43.516;1.498;2023-07-24T12:44:58;3.93;;;2.40;;
80293;SDS011;69594;43.516;1.498;2023-07-24T12:47:23;3.80;;;2.23;;
80293;SDS011;69594;43.516;1.498;2023-07-24T12:49:49;3.10;;;1.73;;
80293;SDS011;69594;43.516;1.498;2023-07-24T12:52:14;4.95;;;2.58;;
80293;SDS011;69594;43.516;1.498;2023-07-24T12:54:40;3.60;;;1.90;;
80293;SDS011;69594;43.516;1.498;2023-07-24T12:57:05;4.37;;;2.30;;
80293;SDS011;69594;43.516;1.498;2023-07-24T12:59:30;3.73;;;2.10;;
80293;SDS011;69594;43.516;1.498;2023-07-24T13:01:56;2.67;;;2.07;;
80293;SDS011;69594;43.516;1.498;2023-07-24T13:04:22;4.05;;;2.00;;
80293;SDS011;69594;43.516;1.498;2023-07-24T13:06:47;5.10;;;2.13;;
80293;SDS011;69594;43.516;1.498;2023-07-24T13:09:12;3.43;;;2.17;;
80293;SDS011;69594;43.516;1.498;2023-07-24T13:11:38;4.07;;;2.03;;
80293;SDS011;69594;43.516;1.498;2023-07-24T13:14:03;3.90;;;2.30;;
80293;SDS011;69594;43.516;1.498;2023-07-24T13:16:28;4.83;;;2.17;;
80293;SDS011;69594;43.516;1.498;2023-07-24T13:18:54;3.50;;;1.90;;
80293;SDS011;69594;43.516;1.498;2023-07-24T13:21:19;3.93;;;2.27;;
80293;SDS011;69594;43.516;1.498;2023-07-24T13:23:45;3.97;;;1.90;;
80293;SDS011;69594;43.516;1.498;2023-07-24T13:26:10;2.83;;;2.10;;
80293;SDS011;69594;43.516;1.498;2023-07-24T13:28:37;3.83;;;2.10;;
80293;SDS011;69594;43.516;1.498;2023-07-24T13:31:21;3.97;;;1.80;;
80293;SDS011;69594;43.516;1.498;2023-07-24T13:33:47;4.57;;;2.00;;
80293;SDS011;69594;43.516;1.498;2023-07-24T13:36:13;4.40;;;2.13;;
80293;SDS011;69594;43.516;1.498;2023-07-24T13:38:39;3.47;;;1.77;;
80293;SDS011;69594;43.516;1.498;2023-07-24T13:41:04;3.47;;;1.70;;
80293;SDS011;69594;43.516;1.498;2023-07-24T13:43:30;5.30;;;1.63;;
80293;SDS011;69594;43.516;1.498;2023-07-24T13:45:55;3.28;;;2.00;;
80293;SDS011;69594;43.516;1.498;2023-07-24T13:48:21;4.33;;;2.00;;
80293;SDS011;69594;43.516;1.498;2023-07-24T13:50:47;2.90;;;1.67;;
80293;SDS011;69594;43.516;1.498;2023-07-24T13:53:12;3.10;;;1.53;;
80293;SDS011;69594;43.516;1.498;2023-07-24T13:55:37;3.07;;;1.80;;
80293;SDS011;69594;43.516;1.498;2023-07-24T13:58:03;4.73;;;1.60;;
80293;SDS011;69594;43.516;1.498;2023-07-24T14:00:28;3.45;;;1.80;;
80293;SDS011;69594;43.516;1.498;2023-07-24T14:02:54;3.07;;;1.90;;
80293;SDS011;69594;43.516;1.498;2023-07-24T14:05:19;3.43;;;1.60;;
80293;SDS011;69594;43.516;1.498;2023-07-24T14:07:44;3.23;;;1.73;;
80293;SDS011;69594;43.516;1.498;2023-07-24T14:10:10;2.93;;;1.80;;
80293;SDS011;69594;43.516;1.498;2023-07-24T14:12:35;3.78;;;1.85;;
80293;SDS011;69594;43.516;1.498;2023-07-24T14:15:01;2.20;;;1.50;;
80293;SDS011;69594;43.516;1.498;2023-07-24T14:17:27;2.57;;;1.70;;
80293;SDS011;69594;43.516;1.498;2023-07-24T14:19:52;4.35;;;1.60;;
80293;SDS011;69594;43.516;1.498;2023-07-24T14:22:17;2.53;;;1.67;;
80293;SDS011;69594;43.516;1.498;2023-07-24T14:24:43;7.53;;;1.90;;
80293;SDS011;69594;43.516;1.498;2023-07-24T14:27:08;4.20;;;1.80;;
80293;SDS011;69594;43.516;1.498;2023-07-24T14:29:34;4.17;;;2.03;;
80293;SDS011;69594;43.516;1.498;2023-07-24T14:31:59;3.77;;;1.97;;
80293;SDS011;69594;43.516;1.498;2023-07-24T14:34:24;2.50;;;1.70;;
80293;SDS011;69594;43.516;1.498;2023-07-24T14:36:50;4.37;;;1.93;;
80293;SDS011;69594;43.516;1.498;2023-07-24T14:39:15;2.93;;;1.70;;